Data for 05/19/2010

Time Sea-Level Adjusted Pressure Absolute Pressure Temperature Relative Humidity Dew Point   
(mb) (inHg) (mb) (inHg) (C) (F) (%) (C) (F)
00:05 1014 29.94 843 24.89 11.6 52.8 77 7.8 46
00:10 1014 29.94 843 24.89 11.6 52.9 77 7.7 45.8
00:15 1014 29.94 843 24.89 11.6 52.8 77 7.8 46
00:20 1014 29.94 843 24.89 11.5 52.8 78 7.9 46.2
00:25 1014 29.94 843 24.89 11.5 52.7 79 8 46.3
00:30 1014 29.94 843 24.89 11.5 52.6 79 8 46.4
00:35 1014 29.94 843 24.89 11.4 52.6 79 7.9 46.3
00:40 1014 29.94 843 24.89 11.2 52.1 80 7.9 46.2
00:45 1014 29.94 843 24.89 11.2 52.1 81 8 46.3
00:50 1014 29.94 843 24.89 10.9 51.7 81 7.9 46.2
00:55 1014 29.94 843 24.89 10.8 51.5 81 7.8 46
01:00 1014 29.94 843 24.89 11.2 52.2 79 7.7 45.9
01:05 1014 29.94 843 24.89 11.4 52.6 77 7.5 45.5
01:10 1014 29.94 843 24.89 11.6 52.8 76 7.5 45.4
01:15 1014 29.94 843 24.89 11.6 52.9 77 7.7 45.9
01:20 1014 29.94 843 24.89 11.6 52.8 77 7.7 45.8
01:25 1014 29.94 843 24.89 11.4 52.6 77 7.6 45.8
01:30 1014 29.94 843 24.89 11.4 52.5 78 7.7 45.8
01:35 1014 29.94 843 24.89 11.4 52.4 78 7.6 45.8
01:40 1014 29.94 843 24.89 11.3 52.4 78 7.6 45.7
01:45 1014 29.94 843 24.89 11.3 52.4 78 7.6 45.7
01:50 1014 29.94 843 24.89 11.3 52.3 78 7.7 45.8
01:55 1014 29.94 843 24.89 11.3 52.3 79 7.7 45.9
02:00 1014 29.94 843 24.89 11.3 52.4 78 7.7 45.8
02:05 1014 29.94 844 24.92 11.3 52.4 78 7.7 45.9
02:10 1014 29.94 844 24.92 11.3 52.3 78 7.7 45.8
02:15 1014 29.94 844 24.92 11.3 52.3 78 7.7 45.8
02:20 1014 29.94 844 24.92 11.3 52.4 79 7.8 46.1
02:25 1014 29.94 844 24.92 11.4 52.5 79 7.9 46.2
02:30 1014 29.94 844 24.92 11.3 52.4 80 8 46.4
02:35 1014 29.94 844 24.92 11.1 52 81 8 46.3
02:40 1014 29.94 844 24.92 10.9 51.6 83 8.2 46.7
02:45 1014 29.94 844 24.92 10.7 51.2 83 8 46.3
02:50 1014 29.94 844 24.92 10.6 51.1 84 8 46.5
02:55 1014 29.94 844 24.92 10.6 51 86 8.3 47
03:00 1014 29.94 844 24.92 10.4 50.8 88 8.5 47.3
03:05 1014 29.94 844 24.92 10.3 50.5 89 8.5 47.3
03:10 1014 29.94 844 24.92 10.2 50.4 88 8.3 46.9
03:15 1014 29.94 844 24.92 10.2 50.3 87 8.1 46.6
03:20 1014 29.94 844 24.92 10.2 50.4 86 8 46.5
03:25 1014 29.94 844 24.92 10.2 50.3 87 8.1 46.6
03:30 1014 29.94 844 24.92 10.2 50.4 88 8.2 46.8
03:35 1015 29.97 844 24.92 10.1 50.2 89 8.3 47
03:40 1015 29.97 844 24.92 9.9 49.8 89 8.2 46.8
03:45 1015 29.97 844 24.92 9.7 49.4 89 8 46.4
03:50 1015 29.97 844 24.92 9.7 49.4 88 7.9 46.2
03:55 1015 29.97 844 24.92 9.9 49.8 86 7.6 45.7
04:00 1015 29.97 844 24.92 10.1 50.2 83 7.5 45.4
04:05 1015 29.97 844 24.92 10.2 50.4 84 7.7 45.9
04:10 1015 29.97 844 24.92 10.1 50.2 86 8 46.3
04:15 1015 29.97 844 24.92 10 50 84 7.5 45.5
04:20 1015 29.97 844 24.92 10 50 83 7.3 45.2
04:25 1015 29.97 844 24.92 10 50 84 7.4 45.3
04:30 1015 29.97 844 24.92 10 49.9 84 7.4 45.3
04:35 1015 29.97 844 24.92 9.8 49.6 83 7 44.7
04:40 1015 29.97 844 24.92 9.7 49.4 84 7 44.7
04:45 1015 29.97 844 24.92 9.6 49.2 84 7 44.5
04:50 1015 29.97 844 24.92 9.5 49 84 6.9 44.4
04:55 1015 29.97 844 24.92 9.4 49 85 7 44.6
05:00 1015 29.97 844 24.92 9.4 49 85 7 44.5
05:05 1015 29.97 844 24.92 9.4 49 84 7 44.5
05:10 1015 29.97 845 24.95 9.4 48.9 86 7.2 44.9
05:15 1015 29.97 845 24.95 9.2 48.6 87 7.2 44.9
05:20 1015 29.97 845 24.95 9.2 48.6 86 7 44.6
05:25 1016 30 845 24.95 9 48.2 89 7.3 45.1
05:30 1016 30 845 24.95 8.8 47.8 91 7.3 45.2
05:35 1016 30 845 24.95 8.6 47.5 91 7.3 45.2
05:40 1016 30 845 24.95 8.7 47.6 90 7.1 44.8
05:45 1016 30 845 24.95 8.6 47.5 90 7.1 44.8
05:50 1016 30 845 24.95 8.6 47.4 90 7 44.7
05:55 1016 30 845 24.95 8.6 47.5 90 7 44.6
06:00 1016 30 845 24.95 8.6 47.5 88 6.8 44.2
06:05 1016 30 845 24.95 8.6 47.6 86 6.5 43.7
06:10 1016 30 845 24.95 8.6 47.4 87 6.5 43.7
06:15 1016 30 845 24.95 8.4 47.2 88 6.5 43.8
06:20 1016 30 845 24.95 8.4 47.2 88 6.6 43.8
06:25 1016 30 845 24.95 8.4 47.2 88 6.6 43.9
06:30 1016 30 845 24.95 8.4 47.1 88 6.6 43.8
06:35 1016 30 845 24.95 8.4 47.1 87 6.4 43.5
06:40 1016 30 845 24.95 8.4 47.2 87 6.4 43.6
06:45 1016 30 845 24.95 8.5 47.4 86 6.4 43.5
06:50 1016 30 845 24.95 8.7 47.6 84 6.2 43.1
06:55 1016 30 845 24.95 8.8 47.9 84 6.3 43.4
07:00 1016 30 845 24.95 8.9 48 84 6.3 43.3
07:05 1016 30 845 24.95 8.8 47.9 85 6.4 43.5
07:10 1016 30 845 24.95 8.9 48 85 6.5 43.8
07:15 1016 30 845 24.95 8.9 48.1 84 6.5 43.6
07:20 1016 30 846 24.98 9 48.2 84 6.5 43.7
07:25 1016 30 846 24.98 8.9 48 83 6.3 43.3
07:30 1016 30 846 24.98 8.9 48 83 6.2 43.1
07:35 1016 30 846 24.98 9.1 48.3 79 5.6 42.1
07:40 1016 30 846 24.98 9.3 48.8 78 5.7 42.2
07:45 1016 30 846 24.98 9.5 49 77 5.7 42.2
07:50 1017 30.03 846 24.98 9.5 49.1 76 5.4 41.8
07:55 1017 30.03 846 24.98 9.4 49 77 5.6 42.1
08:00 1017 30.03 846 24.98 9.1 48.4 79 5.7 42.3
08:05 1017 30.03 846 24.98 9.1 48.4 81 6 42.7
08:10 1017 30.03 846 24.98 9.1 48.4 82 6.2 43.1
08:15 1017 30.03 846 24.98 9.1 48.5 82 6.3 43.4
08:20 1017 30.03 846 24.98 9.2 48.5 83 6.5 43.7
08:25 1017 30.03 846 24.98 9.3 48.7 83 6.6 43.9
08:30 1017 30.03 846 24.98 9.4 48.8 85 6.9 44.4
08:35 1017 30.03 846 24.98 9.4 49 85 7 44.7
08:40 1017 30.03 846 24.98 9.4 48.9 86 7.1 44.8
08:45 1017 30.03 846 24.98 9.4 48.8 85 7 44.6
08:50 1017 30.03 846 24.98 9.5 49.1 85 7 44.7
08:55 1017 30.03 846 24.98 9.6 49.3 84 7 44.6
09:00 1017 30.03 846 24.98 9.6 49.4 84 7 44.6
09:05 1017 30.03 846 24.98 9.8 49.7 83 7 44.6
09:10 1017 30.03 846 24.98 10.1 50.1 81 6.9 44.5
09:15 1017 30.03 846 24.98 10 49.9 80 6.7 44
09:20 1017 30.03 846 24.98 10.1 50.1 76 6 42.8
09:25 1017 30.03 846 24.98 10 50.1 78 6.4 43.6
09:30 1017 30.03 846 24.98 10.3 50.6 76 6.2 43.2
09:35 1017 30.03 847 25.01 10.5 50.8 74 6.1 43
09:40 1017 30.03 847 25.01 10.6 51 73 6 42.7
09:45 1017 30.03 847 25.01 10.7 51.2 74 6.3 43.3
09:50 1017 30.03 847 25.01 10.9 51.6 72 6 42.8
09:55 1017 30.03 847 25.01 11 51.9 72 6.3 43.3
10:00 1017 30.03 847 25.01 11.2 52.1 70 6 42.8
10:05 1017 30.03 847 25.01 11.2 52.1 68 5.4 41.8
10:10 1017 30.03 847 25.01 11.3 52.3 69 5.7 42.3
10:15 1017 30.03 847 25.01 11.4 52.5 65 5.1 41.2
10:20 1018 30.06 847 25.01 11.4 52.5 65 5.2 41.3
10:25 1018 30.06 847 25.01 11.3 52.3 67 5.4 41.8
10:30 1018 30.06 847 25.01 11.2 52.2 66 5.1 41.1
10:35 1018 30.06 847 25.01 11.5 52.8 64 5.1 41.1
10:40 1018 30.06 847 25.01 11.3 52.4 66 5.2 41.4
10:45 1018 30.06 847 25.01 11.1 51.9 65 4.8 40.7
10:50 1018 30.06 847 25.01 11.2 52.2 64 4.8 40.6
10:55 1017 30.03 847 25.01 11 51.7 65 4.6 40.3
11:00 1017 30.03 847 25.01 11.6 52.8 63 4.9 40.7
11:05 1017 30.03 847 25.01 11.9 53.3 63 5.1 41.1
11:10 1017 30.03 847 25.01 12.6 54.7 58 4.7 40.4
11:15 1017 30.03 847 25.01 13.4 56.1 55 4.6 40.3
11:20 1017 30.03 847 25.01 13.2 55.7 58 5.1 41.2
11:25 1017 30.03 847 25.01 12.9 55.2 57 4.7 40.5
11:30 1017 30.03 847 25.01 13.3 55.9 57 5 41.1
11:35 1017 30.03 847 25.01 13.5 56.3 57 5.1 41.2
11:40 1017 30.03 847 25.01 13.7 56.6 56 5 41
11:45 1017 30.03 847 25.01 14 57.1 55 5.2 41.4
11:50 1017 30.03 847 25.01 13.8 56.8 57 5.5 42
11:55 1017 30.03 847 25.01 13.4 56.1 58 5.4 41.8
12:00 1017 30.03 847 25.01 13.6 56.6 55 5 40.9
12:05 1017 30.03 846 24.98 13.9 57 56 5.4 41.7
12:10 1017 30.03 846 24.98 13.7 56.7 57 5.3 41.6
12:15 1017 30.03 846 24.98 14 57.2 54 4.9 40.8
12:20 1017 30.03 846 24.98 14.3 57.7 54 5.2 41.3
12:25 1017 30.03 846 24.98 13.4 56.2 58 5.5 41.9
12:30 1017 30.03 846 24.98 13.5 56.3 57 5.1 41.3
12:35 1017 30.03 846 24.98 14.6 58.2 54 5.5 41.9
12:40 1017 30.03 846 24.98 14.1 57.4 56 5.5 42
12:45 1017 30.03 846 24.98 14.7 58.5 52 5 40.9
12:50 1017 30.03 846 24.98 16 60.7 47 4.6 40.3
12:55 1017 30.03 846 24.98 16.5 61.7 47 5.3 41.5
13:00 1017 30.03 846 24.98 14.7 58.4 53 5.3 41.6
13:05 1017 30.03 846 24.98 15.1 59.2 50 4.9 40.8
13:10 1017 30.03 846 24.98 15.5 59.9 51 5.4 41.7
13:15 1017 30.03 846 24.98 15.5 59.8 47 4.4 40
13:20 1017 30.03 846 24.98 16.9 62.3 44 4.7 40.4
13:25 1017 30.03 846 24.98 16.3 61.4 49 5.6 42.2
13:30 1017 30.03 846 24.98 15.4 59.6 45 3.7 38.6
13:35 1017 30.03 846 24.98 15.6 60 46 4 39.3
13:40 1017 30.03 846 24.98 16 60.8 45 4.1 39.4
13:45 1017 30.03 846 24.98 16 60.7 44 3.9 39.1
13:50 1017 30.03 846 24.98 16.1 61 43 3.7 38.7
13:55 1017 30.03 846 24.98 16.3 61.4 44 4.2 39.5
14:00 1017 30.03 846 24.98 15.9 60.6 46 4.5 40.1
14:05 1017 30.03 846 24.98 16.2 61.1 43 3.7 38.7
14:10 1017 30.03 846 24.98 16.4 61.4 46 4.7 40.5
14:15 1017 30.03 846 24.98 16.5 61.6 42 3.6 38.5
14:20 1016 30 846 24.98 16.1 60.9 44 3.9 38.9
14:25 1016 30 846 24.98 17.2 63 40 3.6 38.5
14:30 1016 30 846 24.98 17.9 64.2 40 4.4 39.9
14:35 1016 30 846 24.98 16.5 61.7 45 4.6 40.3
14:40 1016 30 845 24.95 16.5 61.7 43 4 39.2
14:45 1016 30 845 24.95 16.8 62.2 43 4.1 39.4
14:50 1016 30 845 24.95 16.6 61.9 42 3.8 38.8
14:55 1016 30 846 24.98 16.9 62.3 42 3.8 38.9
15:00 1016 30 845 24.95 16.7 62.1 41 3.6 38.5
15:05 1016 30 845 24.95 17.4 63.2 42 4.3 39.7
15:10 1016 30 845 24.95 17.3 63.1 41 4.1 39.3
15:15 1016 30 845 24.95 17.9 64.3 41 4.7 40.4
15:20 1016 30 845 24.95 17 62.6 42 4 39.2
15:25 1016 30 845 24.95 16.7 62.1 42 3.9 39
15:30 1016 30 845 24.95 16.2 61.1 44 4 39.2
15:35 1016 30 845 24.95 16.6 62 41 3.5 38.4
15:40 1016 30 845 24.95 16.4 61.5 43 3.7 38.7
15:45 1016 30 845 24.95 16.8 62.2 41 3.7 38.7
15:50 1016 30 845 24.95 16.9 62.4 43 4.2 39.6
15:55 1016 30 845 24.95 17.1 62.8 41 3.8 38.8
16:00 1016 30 845 24.95 17.4 63.4 42 4.6 40.3
16:05 1016 30 845 24.95 17.1 62.7 43 4.4 39.8
16:10 1016 30 845 24.95 17.3 63.2 40 3.9 39
16:15 1016 30 845 24.95 18.2 64.8 38 3.9 39.1
16:20 1015 29.97 845 24.95 18.1 64.5 39 3.9 39
16:25 1015 29.97 845 24.95 18.3 64.9 39 4.4 39.9
16:30 1015 29.97 845 24.95 17.2 63 42 4.2 39.6
16:35 1015 29.97 845 24.95 17.3 63.2 40 3.8 38.9
16:40 1015 29.97 845 24.95 17.1 62.7 42 4.2 39.6
16:45 1015 29.97 844 24.92 16.3 61.4 42 3.6 38.4
16:50 1015 29.97 844 24.92 16.6 61.8 41 3.3 37.9
16:55 1015 29.97 844 24.92 16.9 62.4 40 3.3 37.9
17:00 1015 29.97 844 24.92 17.8 64 38 3.3 37.9
17:05 1015 29.97 844 24.92 18.6 65.5 36 3.4 38
17:10 1015 29.97 844 24.92 19.2 66.5 33 2.8 37.1
17:15 1015 29.97 844 24.92 19.9 67.8 33 3.2 37.7
17:20 1015 29.97 844 24.92 19.9 67.8 34 3.6 38.6
17:25 1015 29.97 844 24.92 18.3 65 38 3.7 38.7
17:30 1015 29.97 844 24.92 18.1 64.6 39 3.9 39.1
17:35 1015 29.97 844 24.92 18 64.4 39 4.1 39.4
17:40 1015 29.97 844 24.92 17.2 63 42 4.2 39.6
17:45 1015 29.97 844 24.92 18 64.4 37 3.4 38.1
17:50 1015 29.97 844 24.92 19 66.3 35 3.6 38.4
17:55 1015 29.97 844 24.92 19.3 66.8 36 3.9 39.1
18:00 1015 29.97 844 24.92 19.5 67 34 3.5 38.2
18:05 1015 29.97 844 24.92 18.9 65.9 38 4.5 40
18:10 1014 29.94 844 24.92 18.3 65 38 3.9 39.1
18:15 1014 29.94 844 24.92 18.3 64.9 38 3.7 38.6
18:20 1014 29.94 844 24.92 18.7 65.7 37 4 39.2
18:25 1015 29.97 844 24.92 19.3 66.7 35 3.7 38.7
18:30 1014 29.94 844 24.92 19.6 67.3 35 4 39.2
18:35 1014 29.94 844 24.92 19.3 66.7 35 3.8 38.8
18:40 1014 29.94 844 24.92 18.6 65.5 37 3.7 38.7
18:45 1014 29.94 844 24.92 18.2 64.7 38 3.9 39
18:50 1014 29.94 843 24.89 18.1 64.5 39 3.9 39
18:55 1014 29.94 844 24.92 17.9 64.1 41 4.6 40.3
19:00 1014 29.94 844 24.92 17.8 64 39 3.8 38.9
19:05 1014 29.94 843 24.89 17.9 64.1 39 3.7 38.7
19:10 1014 29.94 843 24.89 18.1 64.5 37 3.5 38.2
19:15 1014 29.94 843 24.89 18.2 64.8 38 3.8 38.8
19:20 1014 29.94 843 24.89 17.8 64 40 4 39.1
19:25 1014 29.94 843 24.89 17.3 63.1 44 4.9 40.8
19:30 1014 29.94 843 24.89 17.3 63.1 40 3.8 38.8
19:35 1014 29.94 843 24.89 17.2 63 42 4.1 39.5
19:40 1014 29.94 843 24.89 17.3 63.1 41 4.1 39.4
19:45 1014 29.94 843 24.89 17.2 63 41 4.1 39.4
19:50 1014 29.94 843 24.89 16.9 62.5 45 5.1 41.1
19:55 1014 29.94 843 24.89 16.5 61.8 46 5.1 41.2
20:00 1014 29.94 843 24.89 16.4 61.5 47 5.2 41.4
20:05 1014 29.94 843 24.89 16.4 61.6 49 5.9 42.6
20:10 1014 29.94 843 24.89 15.8 60.5 52 6.1 43
20:15 1014 29.94 843 24.89 15.2 59.3 54 6 42.8
20:20 1014 29.94 843 24.89 14.9 58.7 55 6 42.9
20:25 1014 29.94 843 24.89 14.5 58.2 59 6.7 44.1
20:30 1014 29.94 843 24.89 14.1 57.4 62 7.1 44.8
20:35 1014 29.94 843 24.89 13.9 57.1 62 6.7 44.1
20:40 1014 29.94 843 24.89 13.9 57 61 6.6 43.8
20:45 1014 29.94 843 24.89 13.8 56.8 60 6.3 43.4
20:50 1014 29.94 843 24.89 13.8 56.8 62 6.6 43.9
20:55 1014 29.94 843 24.89 13.5 56.2 64 6.8 44.2
21:00 1014 29.94 843 24.89 13.3 55.9 66 7.1 44.8
21:05 1014 29.94 843 24.89 13 55.5 66 7 44.5
21:10 1014 29.94 843 24.89 12.9 55.3 65 6.6 44
21:15 1014 29.94 843 24.89 12.9 55.1 65 6.5 43.7
21:20 1014 29.94 843 24.89 12.8 55.1 64 6.3 43.3
21:25 1014 29.94 843 24.89 12.8 55 66 6.6 43.9
21:30 1014 29.94 843 24.89 12.5 54.5 67 6.6 43.9
21:35 1014 29.94 843 24.89 12.3 54.1 69 6.8 44.3
21:40 1014 29.94 843 24.89 11.8 53.3 70 6.7 44
21:45 1014 29.94 843 24.89 11.6 52.9 70 6.3 43.4
21:50 1014 29.94 843 24.89 11.7 53 70 6.4 43.6
21:55 1014 29.94 843 24.89 11.6 52.9 69 6.1 43.1
22:00 1014 29.94 843 24.89 11.8 53.2 67 6 42.8
22:05 1014 29.94 843 24.89 11.8 53.3 68 6.2 43.2
22:10 1014 29.94 843 24.89 11.6 52.9 69 6.2 43.2
22:15 1014 29.94 843 24.89 11.3 52.4 71 6.3 43.3
22:20 1014 29.94 843 24.89 11.3 52.3 69 5.8 42.5
22:25 1014 29.94 843 24.89 11.5 52.8 67 5.7 42.2
22:30 1014 29.94 843 24.89 11.8 53.2 67 5.9 42.7
22:35 1014 29.94 843 24.89 11.7 53 68 6 42.8
22:40 1014 29.94 843 24.89 11.5 52.7 68 5.9 42.7
22:45 1014 29.94 843 24.89 11.5 52.6 69 5.9 42.7
22:50 1014 29.94 843 24.89 11.4 52.4 69 6 42.7
22:55 1014 29.94 843 24.89 11.2 52.2 69 5.8 42.5
23:00 1014 29.94 843 24.89 11.2 52.2 69 5.8 42.5
23:05 1014 29.94 843 24.89 11.1 52 69 5.6 42.1
23:10 1014 29.94 843 24.89 11 51.7 69 5.6 42
23:15 1014 29.94 843 24.89 10.7 51.2 70 5.4 41.8
23:20 1014 29.94 843 24.89 10.7 51.3 69 5.4 41.7
23:25 1014 29.94 843 24.89 10.7 51.2 69 5.3 41.6
23:30 1014 29.94 843 24.89 10.6 51.1 70 5.4 41.7
23:35 1014 29.94 843 24.89 10.5 50.9 69 5.1 41.1
23:40 1014 29.94 843 24.89 10.4 50.8 69 5.1 41.1
23:45 1014 29.94 843 24.89 10.2 50.4 70 5 41.1
23:50 1014 29.94 843 24.89 10.1 50.1 70 4.9 40.9
23:55 1014 29.94 843 24.89 10 49.9 71 4.9 40.8
24:00 1014 29.94 843 24.89 9.8 49.7 70 4.6 40.3